地図

経路データ

SID SEASON NUMBER BASIN SUBBASIN NAME ISO_TIME NATURE LAT LON WMO_WIND WMO_PRES WMO_AGENCY TRACK_TYPE DIST2LAND LANDFALL IFLAG USA_AGENCY USA_ATCF_ID USA_LAT USA_LON USA_RECORD USA_STATUS USA_WIND USA_PRES USA_SSHS USA_R34_NE USA_R34_SE USA_R34_SW USA_R34_NW USA_R50_NE USA_R50_SE USA_R50_SW USA_R50_NW USA_R64_NE USA_R64_SE USA_R64_SW USA_R64_NW USA_POCI USA_ROCI USA_RMW USA_EYE TOKYO_LAT TOKYO_LON TOKYO_GRADE TOKYO_WIND TOKYO_PRES TOKYO_R50_DIR TOKYO_R50_LONG TOKYO_R50_SHORT TOKYO_R30_DIR TOKYO_R30_LONG TOKYO_R30_SHORT TOKYO_LAND CMA_LAT CMA_LON CMA_CAT CMA_WIND CMA_PRES HKO_LAT HKO_LON HKO_CAT HKO_WIND HKO_PRES NEWDELHI_LAT NEWDELHI_LON NEWDELHI_GRADE NEWDELHI_WIND NEWDELHI_PRES NEWDELHI_CI NEWDELHI_DP NEWDELHI_POCI REUNION_LAT REUNION_LON REUNION_TYPE REUNION_WIND REUNION_PRES REUNION_TNUM REUNION_CI REUNION_RMW REUNION_R34_NE REUNION_R34_SE REUNION_R34_SW REUNION_R34_NW REUNION_R50_NE REUNION_R50_SE REUNION_R50_SW REUNION_R50_NW REUNION_R64_NE REUNION_R64_SE REUNION_R64_SW REUNION_R64_NW BOM_LAT BOM_LON BOM_TYPE BOM_WIND BOM_PRES BOM_TNUM BOM_CI BOM_RMW BOM_R34_NE BOM_R34_SE BOM_R34_SW BOM_R34_NW BOM_R50_NE BOM_R50_SE BOM_R50_SW BOM_R50_NW BOM_R64_NE BOM_R64_SE BOM_R64_SW BOM_R64_NW BOM_ROCI BOM_POCI BOM_EYE BOM_POS_METHOD BOM_PRES_METHOD NADI_LAT NADI_LON NADI_CAT NADI_WIND NADI_PRES WELLINGTON_LAT WELLINGTON_LON WELLINGTON_WIND WELLINGTON_PRES DS824_LAT DS824_LON DS824_STAGE DS824_WIND DS824_PRES TD9636_LAT TD9636_LON TD9636_STAGE TD9636_WIND TD9636_PRES TD9635_LAT TD9635_LON TD9635_WIND TD9635_PRES TD9635_ROCI NEUMANN_LAT NEUMANN_LON NEUMANN_CLASS NEUMANN_WIND NEUMANN_PRES MLC_LAT MLC_LON MLC_CLASS MLC_WIND MLC_PRES USA_GUST BOM_GUST BOM_GUST_PER REUNION_GUST REUNION_GUST_PER USA_SEAHGT USA_SEARAD_NE USA_SEARAD_SE USA_SEARAD_SW USA_SEARAD_NW STORM_SPEED STORM_DIR
1972233N11256 1972 76 EP MM FERNANDA 1972-08-20 00:00:00 TS 10.9000 -104.400 40 hurdat_epa main 800 794 O________OO___ hurdat_epa EP061972 10.9000 -104.400 TS 40 0 10.9000 -104.400 TC 40 10.9000 -104.400 2 5 310
1972233N11256 1972 76 EP MM FERNANDA 1972-08-20 03:00:00 TS 11.0581 -104.589 main 790 785 P________PP___ EP061972 11.0751 -104.607 TS 40 0 11.0751 -104.607 TC 40 10.9901 -104.516 2 5 307
1972233N11256 1972 76 EP MM FERNANDA 1972-08-20 06:00:00 TS 11.1768 -104.775 40 hurdat_epa main 790 790 O________OP___ hurdat_epa EP061972 11.2000 -104.800 TS 40 0 11.2000 -104.800 TC 40 11.0841 -104.675 2 4 295
1972233N11256 1972 76 EP MM FERNANDA 1972-08-20 09:00:00 TS 11.2371 -104.977 main 801 792 P________PP___ EP061972 11.2498 -104.990 TS 42 0 11.2498 -104.990 TC 42 11.1862 -104.922 2 5 283
1972233N11256 1972 76 EP MM FERNANDA 1972-08-20 12:00:00 TS 11.3000 -105.300 45 hurdat_epa main 803 800 O________OO___ hurdat_epa EP061972 11.3000 -105.300 TS 45 0 11.3000 -105.300 TC 45 11.3000 -105.300 2 9 283
1972233N11256 1972 76 EP MM FERNANDA 1972-08-20 15:00:00 TS 11.4337 -105.839 main 810 803 P________PP___ EP061972 11.4351 -105.840 TS 45 0 11.4351 -105.840 TC 45 11.4283 -105.834 2 12 284
1972233N11256 1972 76 EP MM FERNANDA 1972-08-20 18:00:00 TS 11.5942 -106.495 45 hurdat_epa main 816 816 O________OP___ hurdat_epa EP061972 11.6000 -106.500 TS 45 0 11.6000 -106.500 TC 45 11.5712 -106.475 2 13 283
1972233N11256 1972 76 EP MM FERNANDA 1972-08-20 21:00:00 TS 11.7397 -107.163 main 838 828 P________PP___ EP061972 11.7425 -107.165 TS 47 0 11.7425 -107.165 TC 47 11.7283 -107.153 2 13 283
1972233N11256 1972 76 EP MM FERNANDA 1972-08-21 00:00:00 TS 11.9000 -107.800 50 hurdat_epa main 852 852 O________OO___ hurdat_epa EP061972 11.9000 -107.800 TS 50 0 11.9000 -107.800 TC 50 11.9000 -107.800 2 12 287
1972233N11256 1972 76 EP MM FERNANDA 1972-08-21 03:00:00 TS 12.0933 -108.334 main 864 864 P________PP___ EP061972 12.0923 -108.330 TS 50 0 12.0923 -108.330 TC 50 12.0975 -108.350 2 11 292
1972233N11256 1972 76 EP MM FERNANDA 1972-08-21 06:00:00 TS 12.3014 -108.811 50 hurdat_epa main 879 878 O________OP___ hurdat_epa EP061972 12.3000 -108.800 TS 50 0 12.3000 -108.800 TC 50 12.3072 -108.855 2 10 294
1972233N11256 1972 76 EP MM FERNANDA 1972-08-21 09:00:00 TS 12.5086 -109.285 main 891 887 P________PP___ EP061972 12.5075 -109.280 TS 50 0 12.5075 -109.280 TC 50 12.5133 -109.307 2 10 295
1972233N11256 1972 76 EP MM FERNANDA 1972-08-21 12:00:00 TS 12.7000 -109.700 50 hurdat_epa main 896 893 O________OO___ hurdat_epa EP061972 12.7000 -109.700 TS 50 0 12.7000 -109.700 TC 50 12.7000 -109.700 2 8 296
1972233N11256 1972 76 EP MM FERNANDA 1972-08-21 15:00:00 TS 12.8603 -110.025 main 897 897 P________PP___ EP061972 12.8649 -110.030 TS 55 0 12.8649 -110.030 TC 55 12.8418 -110.005 2 6 297
1972233N11256 1972 76 EP MM FERNANDA 1972-08-21 18:00:00 TS 12.9928 -110.292 60 hurdat_epa main 909 907 O________OP___ hurdat_epa EP061972 13.0000 -110.300 TS 60 0 13.0000 -110.300 TC 60 12.9640 -110.258 2 5 296
1972233N11256 1972 76 EP MM FERNANDA 1972-08-21 21:00:00 TS 13.0957 -110.524 main 914 914 P________PP___ EP061972 13.0998 -110.528 TS 62 0 13.0998 -110.528 TC 62 13.0793 -110.508 2 5 293
1972233N11256 1972 76 EP MM FERNANDA 1972-08-22 00:00:00 TS 13.2000 -110.800 65 hurdat_epa main 927 927 O________OO___ hurdat_epa EP061972 13.2000 -110.800 HU 65 1 13.2000 -110.800 TC 65 13.2000 -110.800 3 7 290
1972233N11256 1972 76 EP MM FERNANDA 1972-08-22 03:00:00 TS 13.3319 -111.206 main 950 949 P________PP___ EP061972 13.3426 -111.220 HU 65 1 13.3426 -111.220 TC 65 13.2894 -111.152 3 9 288
1972233N11256 1972 76 EP MM FERNANDA 1972-08-22 06:00:00 TS 13.4788 -111.672 65 hurdat_epa main 972 972 O________OP___ hurdat_epa EP061972 13.5000 -111.700 HU 65 1 13.5000 -111.700 TC 65 13.3940 -111.560 3 9 287
1972233N11256 1972 76 EP MM FERNANDA 1972-08-22 09:00:00 TS 13.5940 -112.092 main 995 995 P________PP___ EP061972 13.6046 -112.106 HU 67 1 13.6046 -112.106 TC 67 13.5516 -112.037 3 10 290
1972233N11256 1972 76 EP MM FERNANDA 1972-08-22 12:00:00 TS 13.8000 -112.600 70 hurdat_epa main 1019 1019 O________OO___ hurdat_epa EP061972 13.8000 -112.600 HU 70 1 13.8000 -112.600 TC 70 13.8000 -112.600 4 13 297
1972233N11256 1972 76 EP MM FERNANDA 1972-08-22 15:00:00 TS 14.2027 -113.299 main 1033 1009 P________PP___ EP061972 14.1976 -113.305 HU 77 1 14.1976 -113.305 TC 77 14.2229 -113.278 4 17 302
1972233N11256 1972 76 EP MM FERNANDA 1972-08-22 18:00:00 TS 14.7057 -114.087 85 950 hurdat_epa main 1013 992 O________OP___ hurdat_epa EP061972 14.7000 -114.100 HU 85 950 2 14.7000 -114.100 TC 85 950 14.7286 -114.037 4 18 305
1972233N11256 1972 76 EP MM FERNANDA 1972-08-22 21:00:00 TS 15.2389 -114.857 main 1003 989 P________PP___ EP061972 15.2374 -114.865 HU 85 2 15.2374 -114.865 TC 85 15.2448 -114.828 4 18 304
1972233N11256 1972 76 EP MM FERNANDA 1972-08-23 00:00:00 TS 15.7000 -115.600 85 hurdat_epa main 996 993 O________OO___ hurdat_epa EP061972 15.7000 -115.600 HU 85 2 15.7000 -115.600 TC 85 15.7000 -115.600 4 15 298
1972233N11256 1972 76 EP MM FERNANDA 1972-08-23 03:00:00 TS 15.9489 -116.271 main 1024 1015 P________PP___ EP061972 15.9372 -116.266 HU 85 2 15.9372 -116.266 TC 85 15.9960 -116.292 4 13 289
1972233N11256 1972 76 EP MM FERNANDA 1972-08-23 06:00:00 TS 16.1248 -116.911 85 hurdat_epa main 1049 1048 O________OP___ hurdat_epa EP061972 16.1000 -116.900 HU 85 2 16.1000 -116.900 TC 85 16.2239 -116.954 4 13 288
1972233N11256 1972 76 EP MM FERNANDA 1972-08-23 09:00:00 TS 16.3569 -117.564 main 1077 1077 P________PP___ EP061972 16.3424 -117.558 HU 85 2 16.3424 -117.558 TC 85 16.4149 -117.589 4 13 291
1972233N11256 1972 76 EP MM FERNANDA 1972-08-23 12:00:00 TS 16.6000 -118.200 85 hurdat_epa main 1105 1102 O________OO___ hurdat_epa EP061972 16.6000 -118.200 HU 85 2 16.6000 -118.200 TC 85 16.6000 -118.200 4 13 293
1972233N11256 1972 76 EP MM FERNANDA 1972-08-23 15:00:00 TS 16.8563 -118.807 main 1115 1115 P________PP___ EP061972 16.8573 -118.815 HU 85 2 16.8573 -118.815 TC 85 16.8522 -118.776 4 12 294
1972233N11256 1972 76 EP MM FERNANDA 1972-08-23 18:00:00 TS 17.1002 -119.387 85 948 hurdat_epa main 1138 1136 O________OP___ hurdat_epa EP061972 17.1000 -119.400 HU 85 948 2 17.1000 -119.400 TC 85 948 17.1008 -119.335 4 12 293
1972233N11256 1972 76 EP MM FERNANDA 1972-08-23 21:00:00 TS 17.3225 -119.934 main 1157 1156 P________PP___ EP061972 17.3222 -119.943 HU 87 2 17.3222 -119.943 TC 87 17.3240 -119.901 4 11 291
1972233N11256 1972 76 EP MM FERNANDA 1972-08-24 00:00:00 TS 17.5000 -120.500 90 hurdat_epa main 1185 1185 O________OO___ hurdat_epa EP061972 17.5000 -120.500 HU 90 2 17.5000 -120.500 TC 90 17.5000 -120.500 4 12 285
1972233N11256 1972 76 EP MM FERNANDA 1972-08-24 03:00:00 TS 17.6229 -121.123 main 1223 1223 P________PP___ EP061972 17.6298 -121.120 HU 90 2 17.6298 -121.120 TC 90 17.5953 -121.137 4 13 279
1972233N11256 1972 76 EP MM FERNANDA 1972-08-24 06:00:00 TS 17.6887 -121.802 90 hurdat_epa main 1271 1271 O________OP___ hurdat_epa EP061972 17.7000 -121.800 HU 90 2 17.7000 -121.800 TC 90 17.6435 -121.812 4 13 273
1972233N11256 1972 76 EP MM FERNANDA 1972-08-24 09:00:00 TS 17.6997 -122.516 main 1329 1329 P________PP___ EP061972 17.7071 -122.513 HU 95 2 17.7071 -122.513 TC 95 17.6700 -122.531 4 14 270
1972233N11256 1972 76 EP MM FERNANDA 1972-08-24 12:00:00 TS 17.7000 -123.300 100 hurdat_epa main 1396 1396 O________OO___ hurdat_epa EP061972 17.7000 -123.300 HU 100 3 17.7000 -123.300 TC 100 17.7000 -123.300 4 16 271
1972233N11256 1972 76 EP MM FERNANDA 1972-08-24 15:00:00 TS 17.7390 -124.169 main 1461 1461 P________PP___ EP061972 17.7350 -124.185 HU 95 2 17.7350 -124.185 TC 95 17.7548 -124.105 4 17 274
1972233N11256 1972 76 EP MM FERNANDA 1972-08-24 18:00:00 TS 17.8037 -125.072 90 964 hurdat_epa main 1513 1513 O________OP___ hurdat_epa EP061972 17.8000 -125.100 HU 90 964 2 17.8000 -125.100 TC 90 964 17.8187 -124.961 4 17 275
1972233N11256 1972 76 EP MM FERNANDA 1972-08-24 21:00:00 TS 17.8870 -125.920 main 1562 1562 P________PP___ EP061972 17.8842 -125.935 HU 90 2 17.8842 -125.935 TC 90 17.8982 -125.862 4 17 277
1972233N11256 1972 76 EP MM FERNANDA 1972-08-25 00:00:00 TS 18.0000 -126.800 90 hurdat_epa main 1621 1621 O________OO___ hurdat_epa EP061972 18.0000 -126.800 HU 90 2 18.0000 -126.800 TC 90 18.0000 -126.800 4 18 278
1972233N11256 1972 76 EP MM FERNANDA 1972-08-25 03:00:00 TS 18.1362 -127.775 main 1691 1691 P________PP___ EP061972 18.1423 -127.778 HU 90 2 18.1423 -127.778 TC 90 18.1115 -127.765 4 19 279
1972233N11256 1972 76 EP MM FERNANDA 1972-08-25 06:00:00 TS 18.2893 -128.793 90 hurdat_epa main 1757 1757 O________OP___ hurdat_epa EP061972 18.3000 -128.800 HU 90 2 18.3000 -128.800 TC 90 18.2466 -128.764 4 19 279
1972233N11256 1972 76 EP MM FERNANDA 1972-08-25 09:00:00 TS 18.4292 -129.797 main 1833 1833 P________PP___ EP061972 18.4345 -129.800 HU 90 2 18.4345 -129.800 TC 90 18.4082 -129.781 4 19 279
1972233N11256 1972 76 EP MM FERNANDA 1972-08-25 12:00:00 TS 18.6000 -130.800 90 hurdat_epa main 1905 1905 O________OO___ hurdat_epa EP061972 18.6000 -130.800 HU 90 2 18.6000 -130.800 TC 90 18.6000 -130.800 4 20 282
1972233N11256 1972 76 EP MM FERNANDA 1972-08-25 15:00:00 TS 18.8375 -131.810 main 1979 1979 P________PP___ EP061972 18.8345 -131.800 HU 77 1 18.8345 -131.800 TC 77 18.8498 -131.851 4 20 285
1972233N11256 1972 76 EP MM FERNANDA 1972-08-25 18:00:00 TS 19.1046 -132.819 65 hurdat_epa main 2050 2050 O________OP___ hurdat_epa EP061972 19.1000 -132.800 HU 65 1 19.1000 -132.800 TC 65 19.1231 -132.895 4 20 286
1972233N11256 1972 76 EP MM FERNANDA 1972-08-25 21:00:00 TS 19.3751 -133.860 main 2132 2094 P________PP___ EP061972 19.3727 -133.852 HU 65 1 19.3727 -133.852 TC 65 19.3846 -133.892 4 19 285
1972233N11256 1972 76 EP MM FERNANDA 1972-08-26 00:00:00 TS 19.6000 -134.800 65 hurdat_epa main 2094 2020 O________OO___ hurdat_epa EP061972 19.6000 -134.800 HU 65 1 19.6000 -134.800 TC 65 19.6000 -134.800 4 16 283
1972233N11256 1972 76 EP MM FERNANDA 1972-08-26 03:00:00 TS 19.7309 -135.509 main 2020 1957 P________PP___ EP061972 19.7290 -135.495 HU 65 1 19.7290 -135.495 TC 65 19.7384 -135.561 4 13 279
1972233N11256 1972 76 EP MM FERNANDA 1972-08-26 06:00:00 TS 19.8057 -136.127 65 hurdat_epa main 1957 1883 O________OP___ hurdat_epa EP061972 19.8000 -136.100 HU 65 1 19.8000 -136.100 TC 65 19.8285 -136.234 4 12 277
1972233N11256 1972 76 EP MM FERNANDA 1972-08-26 09:00:00 TS 19.8737 -136.801 main 1883 1810 P________PP___ EP061972 19.8722 -136.785 HU 62 0 19.8722 -136.785 TC 62 19.8795 -136.864 4 13 274
1972233N11256 1972 76 EP MM FERNANDA 1972-08-26 12:00:00 TS 19.9000 -137.500 60 hurdat_epa main 1810 1737 O________OO___ hurdat_epa EP061972 19.9000 -137.500 TS 60 0 19.9000 -137.500 TC 60 19.9000 -137.500 2 14 270
1972233N11256 1972 76 EP MM FERNANDA 1972-08-26 15:00:00 TS 19.8633 -138.243 main 1737 1664 P________PP___ EP061972 19.8574 -138.250 TS 60 0 19.8574 -138.250 TC 60 19.8869 -138.212 2 14 266
1972233N11256 1972 76 EP MM FERNANDA 1972-08-26 18:00:00 TS 19.8098 -138.987 60 hurdat_epa main 1654 1581 O________OP___ hurdat_epa EP061972 19.8000 -139.000 TS 60 0 19.8000 -139.000 TC 60 19.8492 -138.937 2 14 267
1972233N11256 1972 76 EP MM FERNANDA 1972-08-26 21:00:00 TS 19.7900 -139.694 main 1581 1507 P________PP___ EP061972 19.7845 -139.700 TS 55 0 19.7845 -139.700 TC 55 19.8118 -139.668 2 13 270
1972233N11256 1972 76 EP CP FERNANDA 1972-08-27 00:00:00 TS 19.8048 -140.414 50 992 hurdat_epa main 1507 1434 O________OO___ hurdat_epa EP061972 19.8000 -140.400 TS 50 992 0 19.8000 -140.400 TC 50 992 19.8000 -140.400 2 14 272
1972233N11256 1972 76 EP CP FERNANDA 1972-08-27 03:00:00 TS 19.8405 -141.172 main 1424 1350 P________PP___ EP061972 19.8349 -141.150 TS 47 0 19.8349 -141.150 TC 47 19.8290 -141.121 2 14 274
1972233N11256 1972 76 EP CP FERNANDA 1972-08-27 06:00:00 TS 19.8980 -141.929 45 hurdat_epa main 1350 1277 O________OP___ hurdat_epa EP061972 19.9000 -141.900 TS 45 0 19.9000 -141.900 TC 45 19.8887 -141.843 2 14 275
1972233N11256 1972 76 EP CP FERNANDA 1972-08-27 09:00:00 TS 19.9607 -142.653 main 1267 1204 P________PP___ EP061972 19.9770 -142.600 TS 45 0 19.9770 -142.600 TC 45 19.9790 -142.568 2 14 277
1972233N11256 1972 76 EP CP FERNANDA 1972-08-27 12:00:00 TS 20.0667 -143.367 45 hurdat_epa main 1194 1121 O________OO___ hurdat_epa EP061972 20.1000 -143.300 TS 45 0 20.1000 -143.300 TC 45 20.1000 -143.300 2 14 282
1972233N11256 1972 76 EP CP FERNANDA 1972-08-27 15:00:00 TS 20.2413 -144.121 main 1121 1049 P________PP___ EP061972 20.2923 -144.042 TS 45 0 20.2923 -144.042 TC 45 20.2589 -144.090 2 15 285
1972233N11256 1972 76 EP CP FERNANDA 1972-08-27 18:00:00 TS 20.4406 -144.880 45 hurdat_epa main 1039 968 O________OP___ hurdat_epa EP061972 20.5000 -144.800 TS 45 0 20.5000 -144.800 TC 45 20.4434 -144.881 2 15 285
1972233N11256 1972 76 EP CP FERNANDA 1972-08-27 21:00:00 TS 20.6177 -145.645 main 968 898 P________PP___ EP061972 20.6651 -145.588 TS 45 0 20.6651 -145.588 TC 45 20.6310 -145.631 2 14 283
1972233N11256 1972 76 EP CP FERNANDA 1972-08-28 00:00:00 TS 20.7667 -146.333 45 hurdat_epa main 898 838 O________OO___ hurdat_epa EP061972 20.8000 -146.300 TS 45 0 20.8000 -146.300 TC 45 20.8000 -146.300 2 12 282
1972233N11256 1972 76 EP CP FERNANDA 1972-08-28 03:00:00 TS 20.8695 -146.883 main 838 798 P________PP___ EP061972 20.9071 -146.853 TS 42 0 20.9071 -146.853 TC 42 20.9240 -146.849 2 10 281
1972233N11256 1972 76 EP CP FERNANDA 1972-08-28 06:00:00 TS 20.9547 -147.336 40 hurdat_epa main 800 759 O________OP___ hurdat_epa EP061972 21.0000 -147.300 TS 40 0 21.0000 -147.300 TC 40 21.0281 -147.313 2 8 283
1972233N11256 1972 76 EP CP FERNANDA 1972-08-28 09:00:00 TS 21.0504 -147.757 main 751 721 P________PP___ EP061972 21.0998 -147.723 TS 40 0 21.0998 -147.723 TC 40 21.1182 -147.721 2 8 285
1972233N11256 1972 76 EP CP FERNANDA 1972-08-28 12:00:00 TS 21.1500 -148.133 40 hurdat_epa main 723 686 O________OO___ hurdat_epa EP061972 21.2000 -148.100 TS 40 0 21.2000 -148.100 TC 40 21.2000 -148.100 2 7 287
1972233N11256 1972 76 EP CP FERNANDA 1972-08-28 15:00:00 TS 21.2628 -148.483 main 686 656 P________PP___ EP061972 21.3073 -148.450 TS 40 0 21.3073 -148.450 TC 40 21.2979 -148.497 2 7 288
1972233N11256 1972 76 EP CP FERNANDA 1972-08-28 18:00:00 TS 21.3645 -148.829 40 hurdat_epa main 660 620 O________OP___ hurdat_epa EP061972 21.4000 -148.800 TS 40 0 21.4000 -148.800 TC 40 21.3868 -148.872 2 7 284
1972233N11256 1972 76 EP CP FERNANDA 1972-08-28 21:00:00 TS 21.4400 -149.220 main 620 585 P________PP___ EP061972 21.4650 -149.200 TS 40 0 21.4650 -149.200 TC 40 21.4574 -149.237 2 7 279
1972233N11256 1972 76 EP CP FERNANDA 1972-08-29 00:00:00 TS 21.4833 -149.617 40 hurdat_epa main 585 547 O________OO___ hurdat_epa EP061972 21.5000 -149.600 TS 40 0 21.5000 -149.600 TC 40 21.5000 -149.600 2 7 274
1972233N11256 1972 76 EP CP FERNANDA 1972-08-29 03:00:00 TS 21.4910 -149.980 main 547 519 P________PP___ EP061972 21.5148 -149.950 TS 40 0 21.5148 -149.950 TC 40 21.4791 -149.972 2 7 269
1972233N11256 1972 76 EP CP FERNANDA 1972-08-29 06:00:00 TS 21.4724 -150.341 40 hurdat_epa main 519 477 O________OP___ hurdat_epa EP061972 21.5000 -150.300 TS 40 0 21.5000 -150.300 TC 40 21.4346 -150.344 2 7 265
1972233N11256 1972 76 EP CP FERNANDA 1972-08-29 09:00:00 TS 21.4300 -150.725 main 477 440 P________PP___ EP061972 21.4350 -150.693 TS 40 0 21.4350 -150.693 TC 40 21.3978 -150.719 2 7 266
1972233N11256 1972 76 EP CP FERNANDA 1972-08-29 12:00:00 TS 21.4167 -151.117 40 hurdat_epa main 440 410 O________OO___ hurdat_epa EP061972 21.4000 -151.100 TS 40 0 21.4000 -151.100 TC 40 21.4000 -151.100 2 7 274
1972233N11256 1972 76 EP CP FERNANDA 1972-08-29 15:00:00 TS 21.4813 -151.512 main 410 382 P________PP___ EP061972 21.4699 -151.500 TS 40 0 21.4699 -151.500 TC 40 21.4657 -151.513 2 8 284
1972233N11256 1972 76 EP CP FERNANDA 1972-08-29 18:00:00 TS 21.5959 -151.905 40 hurdat_epa main 382 353 O________OP___ hurdat_epa EP061972 21.6000 -151.900 TS 40 0 21.6000 -151.900 TC 40 21.5752 -151.930 2 8 288
1972233N11256 1972 76 EP CP FERNANDA 1972-08-29 21:00:00 TS 21.7220 -152.301 main 353 335 P________PP___ EP061972 21.7350 -152.315 TS 40 0 21.7350 -152.315 TC 40 21.7220 -152.332 2 8 292
1972233N11256 1972 76 EP CP FERNANDA 1972-08-30 00:00:00 TS 21.8833 -152.667 40 hurdat_epa main 334 327 O________OO___ hurdat_epa EP061972 21.9000 -152.700 TS 40 0 21.9000 -152.700 TC 40 21.9000 -152.700 2 7 299
1972233N11256 1972 76 EP CP FERNANDA 1972-08-30 03:00:00 TS 22.0771 -152.977 main 327 320 P________PP___ EP061972 22.0849 -153.023 TS 40 0 22.0849 -153.023 TC 40 22.0960 -153.031 2 7 308
1972233N11256 1972 76 EP CP FERNANDA 1972-08-30 06:00:00 TS 22.3033 -153.254 40 hurdat_epa main 323 320 O________OP___ hurdat_epa EP061972 22.3000 -153.300 TS 40 0 22.3000 -153.300 TC 40 22.3197 -153.325 2 7 312
1972233N11256 1972 76 EP CP FERNANDA 1972-08-30 09:00:00 TS 22.5502 -153.538 main 327 318 P________PP___ EP061972 22.5500 -153.572 TS 40 0 22.5500 -153.572 TC 40 22.5586 -153.581 2 7 315
1972233N11256 1972 76 EP CP FERNANDA 1972-08-30 12:00:00 TS 22.8000 -153.783 40 hurdat_epa main 318 318 O________OO___ hurdat_epa EP061972 22.8000 -153.800 TS 40 0 22.8000 -153.800 TC 40 22.8000 -153.800 2 6 320
1972233N11256 1972 76 EP CP FERNANDA 1972-08-30 15:00:00 TS 23.0160 -153.954 main 321 321 P________PP___ EP061972 22.9999 -153.965 TS 40 0 22.9999 -153.965 TC 40 23.0039 -153.939 2 5 327
1972233N11256 1972 76 EP CP FERNANDA 1972-08-30 18:00:00 TS 23.2352 -154.092 40 hurdat_epa main 332 332 O________OP___ hurdat_epa EP061972 23.2000 -154.100 TS 40 0 23.2000 -154.100 TC 40 23.2113 -154.050 2 5 332
1972233N11256 1972 76 EP CP FERNANDA 1972-08-30 21:00:00 TS 23.4908 -154.229 main 354 348 P________PP___ EP061972 23.4499 -154.228 TS 40 0 23.4499 -154.228 TC 40 23.4381 -154.186 2 6 330
1972233N11256 1972 76 EP CP FERNANDA 1972-08-31 00:00:00 TS 23.7500 -154.417 40 hurdat_epa main 373 363 O________OO___ hurdat_epa EP061972 23.7000 -154.400 TS 40 0 23.7000 -154.400 TC 40 23.7000 -154.400 2 7 317
1972233N11256 1972 76 EP CP FERNANDA 1972-08-31 03:00:00 TS 23.9933 -154.737 main 381 378 P________PP___ EP061972 23.9227 -154.700 TS 40 0 23.9227 -154.700 TC 40 24.0190 -154.783 2 8 308
1972233N11256 1972 76 EP CP FERNANDA 1972-08-31 06:00:00 TS 24.2119 -155.074 40 hurdat_epa main 391 391 O________OP___ hurdat_epa EP061972 24.1000 -155.000 TS 40 0 24.1000 -155.000 TC 40 24.3713 -155.246 2 7 309
1972233N11256 1972 76 EP CP FERNANDA 1972-08-31 09:00:00 TS 24.3994 -155.293 main 408 406 P________PP___ EP061972 24.2148 -155.143 TS 42 0 24.2148 -155.143 TC 42 24.7378 -155.736 2 5 310
1972233N11256 1972 76 EP CP FERNANDA 1972-08-31 12:00:00 TS 24.5435 -155.509 45 hurdat_epa main 406 398 O________OO___ hurdat_epa EP061972 24.3000 -155.300 TS 45 0 24.3000 -155.300 TC 45 25.1000 -156.200 2 6 294
1972233N11256 1972 76 EP CP FERNANDA 1972-08-31 15:00:00 TS 24.6230 -155.856 main 392 392 P________PP___ EP061972 24.3253 -155.650 TS 40 0 24.3253 -155.650 TC 40 25.4440 -156.595 2 7 293
1972233N11256 1972 76 EP CP FERNANDA 1972-08-31 18:00:00 TS 24.8072 -156.199 35 hurdat_epa main 397 397 O________OP___ hurdat_epa EP061972 24.5000 -156.000 TS 35 0 24.5000 -156.000 TC 35 25.7718 -156.930 2 8 320
1972233N11256 1972 76 EP CP FERNANDA 1972-08-31 21:00:00 TS 25.2176 -156.405 main 430 430 P________PP___ EP061972 24.9998 -156.200 TS 30 -1 24.9998 -156.200 TC 30 26.0887 -157.225 2 11 343
1972233N11256 1972 76 EP CP FERNANDA 1972-09-01 00:00:00 TS 25.8400 -156.540 25 hurdat_epa main 490 O________OO___ hurdat_epa EP061972 25.7000 -156.300 TD 25 -1 25.7000 -156.300 TC 25 26.4000 -157.500 6 13 349

IBTrACS Databaseについて

本データベースは、米国NOAAが公開する1842年以降の世界の熱帯低気圧のベストトラックデータアーカイブInternational Best Track Archive for Climate Stewardship (IBTrACS)を、ウェブで閲覧しやすい形式に変換したものです。

最終更新日:2021-10-08